Accueil
METAR-TAF:

METAR-TAF

Aéroports :

Tchita, Russie

latitude: 52-05N, longitude: 113-29E, altitude: 685 m

Observation

Le bulletin a été fait il y a 27 minutes, à 06:00 UTC
Vent 16 kt de ouest/sud-ouest
Température 26°C
Humidité 32%
Pression 1003 hPa
Visibilité 10 km ou plus
Nuages épars à une hauteur de 5000 ft, Cumulonimbus.

METAR: UIAA 210600Z 24008MPS 9999 SCT050CB 26/08 Q1003 R29/70D NOSIG RMK QFE694/0925

Heure: 15:27 (06:27 UTC)

Prévision

Le bulletin a été fait il y a 1 heure et 27 minutes, à 05:00 UTC
Prévision valable du 21 à 06 UTC au 22 à 06 UTC
Vent 10 kt de ouest avec des rafales jusqu'à 23 kt
Visibilité 10 km ou plus
Nuages épars à une hauteur de 4000 ft, Cumulonimbus.
Temporairement
du 21 à 06 UTC au 21 à 12 UTC
orage, pluie faible

TAF: UIAA 210500Z 2106/2206 28005G12MPS 9999 SCT040CB TEMPO 2106/2112 -TSRA

Observations et prévisions météorologiques de plus de 4000 aéroports (messages METAR et TAF).

Les stations disponibles sont représentées par des disques jaunes et rouges sur la carte.

Passer la souris dessus pour voir le nom de la station.

Cliquer dessus pour voir les observations et prévisions météorologiques.

Pour changer de carte: cliquez sur les boutons verts avec une croix noire pour zoomer, sur le bouton vert avec un tiret pour effectuer un zoom arrière, ou sur les flèches vertes pour les cartes adjacentes.


METAR-TAF: